Time;durP1;ratioP1;P1;durP2;ratioP2;P2;SDS_P1;SDS_P2;PMS_P1;PMS_P2;Temp;Humidity;BMP_temperature;BMP_pressure;BME280_temperature;BME280_humidity;BME280_pressure;Samples;Min_cycle;Max_cycle;Signal;HPM_P1;HPM_P2
2023/11/03 00:01:37;;;;;;;17.75;3.92;;;;;;;20.80;100.00;100898.84;21236602;27;20142;-82
2023/11/03 00:12:03;;;;;;;13.05;4.22;;;;;;;20.33;100.00;100897.25;21197683;27;20050;-81
2023/11/03 00:22:28;;;;;;;12.73;3.70;;;;;;;20.13;100.00;100902.13;21229598;27;20035;-82
2023/11/03 00:32:52;;;;;;;16.40;3.63;;;;;;;20.65;100.00;100900.09;21200731;27;20054;-81
2023/11/03 00:43:17;;;;;;;15.95;3.40;;;;;;;20.83;100.00;100895.19;21187208;27;20487;-80
2023/11/03 00:53:41;;;;;;;19.48;4.03;;;;;;;20.50;100.00;100899.53;21192167;27;20142;-81
2023/11/03 01:04:05;;;;;;;14.57;4.32;;;;;;;19.67;100.00;100872.72;21192888;28;20039;-82
2023/11/03 01:14:32;;;;;;;16.33;3.20;;;;;;;19.69;100.00;100868.22;21191202;27;20549;-82
2023/11/03 01:24:55;;;;;;;15.67;3.57;;;;;;;20.38;100.00;100851.56;21215111;27;20637;-81
2023/11/03 01:35:19;;;;;;;11.48;3.65;;;;;;;20.58;100.00;100855.53;21241343;27;20055;-82
2023/11/03 01:45:41;;;;;;;16.52;3.67;;;;;;;20.54;100.00;100853.84;21201956;27;20053;-82
2023/11/03 01:56:06;;;;;;;16.40;3.30;;;;;;;20.63;100.00;100856.31;21198986;27;20047;-82
2023/11/03 02:06:30;;;;;;;13.73;3.45;;;;;;;20.67;100.00;100868.75;21217245;27;20043;-81
2023/11/03 02:16:55;;;;;;;14.63;4.15;;;;;;;20.01;100.00;100868.44;21231058;27;20039;-81
2023/11/03 02:27:21;;;;;;;13.35;3.30;;;;;;;19.82;100.00;100877.78;21214317;27;20063;-82
2023/11/03 02:37:44;;;;;;;13.43;3.33;;;;;;;19.46;100.00;100882.94;21211036;27;20441;-82
2023/11/03 02:48:08;;;;;;;14.80;3.67;;;;;;;18.95;100.00;100883.84;21193724;27;20100;-81
2023/11/03 02:58:34;;;;;;;18.42;3.55;;;;;;;18.53;100.00;100877.34;21206368;27;20404;-81
2023/11/03 03:08:59;;;;;;;13.18;3.40;;;;;;;18.65;100.00;100869.16;21175678;27;20043;-81
2023/11/03 03:19:22;;;;;;;13.68;3.38;;;;;;;18.68;100.00;100871.78;21194708;27;20055;-82
2023/11/03 03:29:45;;;;;;;17.65;3.72;;;;;;;18.70;100.00;100876.22;21206946;27;20092;-81
2023/11/03 03:40:09;;;;;;;15.43;3.33;;;;;;;18.64;100.00;100878.09;21202144;27;20732;-81
2023/11/03 03:50:33;;;;;;;15.45;3.97;;;;;;;18.87;100.00;100862.56;21207770;27;20504;-81
2023/11/03 04:00:56;;;;;;;13.00;3.80;;;;;;;19.46;100.00;100849.91;21204251;27;20130;-80
2023/11/03 04:11:21;;;;;;;17.30;4.07;;;;;;;19.83;100.00;100858.97;21231509;27;20190;-80
2023/11/03 04:21:43;;;;;;;14.02;3.90;;;;;;;20.04;100.00;100857.63;21218735;27;20077;-81
2023/11/03 04:32:08;;;;;;;13.55;4.22;;;;;;;20.27;100.00;100866.06;21209407;27;20258;-81
2023/11/03 04:42:31;;;;;;;9.32;3.55;;;;;;;20.37;100.00;100860.50;21205450;27;20047;-81
2023/11/03 04:52:56;;;;;;;14.48;3.70;;;;;;;20.47;100.00;100862.97;21210666;27;20112;-81
2023/11/03 05:03:19;;;;;;;12.65;3.60;;;;;;;20.59;100.00;100868.03;21187535;28;20445;-82
2023/11/03 05:13:44;;;;;;;7.45;3.20;;;;;;;20.75;100.00;100859.59;21195144;28;20047;-81
2023/11/03 05:24:08;;;;;;;11.82;3.65;;;;;;;20.81;100.00;100864.81;21197166;28;20095;-81
2023/11/03 05:34:32;;;;;;;12.50;2.78;;;;;;;21.30;100.00;100872.53;21204826;28;20058;-81
2023/11/03 05:44:54;;;;;;;10.73;3.10;;;;;;;21.75;100.00;100868.56;21207670;27;20100;-81
2023/11/03 05:55:18;;;;;;;14.07;2.67;;;;;;;22.17;100.00;100855.72;21207600;28;20074;-80
2023/11/03 06:05:41;;;;;;;9.68;2.28;;;;;;;22.59;100.00;100861.53;21218604;27;20092;-82
2023/11/03 06:16:06;;;;;;;7.18;1.83;;;;;;;23.09;100.00;100850.06;21191989;27;20055;-81
2023/11/03 06:26:28;;;;;;;7.25;1.70;;;;;;;23.52;100.00;100861.09;21231390;27;20419;-81
2023/11/03 06:36:54;;;;;;;12.85;2.05;;;;;;;24.02;100.00;100844.88;21230794;27;20039;-81
2023/11/03 06:47:17;;;;;;;13.10;1.65;;;;;;;24.41;100.00;100848.72;21221500;27;20494;-81
2023/11/03 06:57:41;;;;;;;8.00;1.70;;;;;;;24.90;100.00;100854.84;21211264;27;20050;-81
2023/11/03 07:08:04;;;;;;;6.05;1.30;;;;;;;25.23;100.00;100858.81;21199262;27;20138;-81
2023/11/03 07:18:28;;;;;;;10.43;1.95;;;;;;;25.66;100.00;100860.53;21211183;27;20047;-80
2023/11/03 07:28:51;;;;;;;8.57;1.80;;;;;;;25.96;100.00;100866.34;21221944;27;20100;-78
2023/11/03 07:39:15;;;;;;;9.88;1.88;;;;;;;26.17;100.00;100867.19;21224748;27;20051;-78
2023/11/03 07:49:37;;;;;;;9.70;2.08;;;;;;;26.35;100.00;100862.75;21197026;27;20096;-80
2023/11/03 08:00:05;;;;;;;10.80;2.00;;;;;;;26.75;100.00;100865.28;21195399;27;20134;-79
2023/11/03 08:10:34;;;;;;;8.10;1.92;;;;;;;26.93;100.00;100867.09;21173536;27;20039;-78
2023/11/03 08:20:58;;;;;;;11.27;2.90;;;;;;;27.16;100.00;100857.78;21197910;27;20382;-80
2023/11/03 08:31:21;;;;;;;8.13;1.67;;;;;;;27.33;99.47;100848.78;21202520;27;20445;-81
2023/11/03 08:41:45;;;;;;;12.20;2.58;;;;;;;27.35;98.33;100838.72;21222373;27;20069;-81
2023/11/03 08:52:09;;;;;;;8.52;2.05;;;;;;;27.61;96.02;100845.53;21205158;27;20116;-77
2023/11/03 09:02:33;;;;;;;7.80;1.83;;;;;;;27.87;87.80;100815.13;21218863;28;20047;-81
2023/11/03 09:12:55;;;;;;;15.88;2.70;;;;;;;28.09;88.44;100802.09;21206983;28;20107;-79
2023/11/03 09:23:20;;;;;;;8.77;2.03;;;;;;;28.07;91.18;100798.59;21184252;28;20043;-81
2023/11/03 09:33:42;;;;;;;12.52;2.60;;;;;;;28.25;89.89;100807.56;21182852;28;20052;-80
2023/11/03 09:44:08;;;;;;;14.80;2.20;;;;;;;28.24;91.00;100794.94;21149053;28;20368;-81
2023/11/03 09:54:32;;;;;;;12.13;2.63;;;;;;;28.40;86.52;100781.38;21148187;27;20056;-78
2023/11/03 10:04:56;;;;;;;15.88;2.45;;;;;;;28.06;93.07;100753.41;21195133;27;20388;-78
2023/11/03 10:15:19;;;;;;;15.80;2.95;;;;;;;28.09;92.92;100757.81;21162623;27;20228;-79
2023/11/03 10:25:46;;;;;;;9.73;2.38;;;;;;;28.13;92.57;100745.78;21194778;27;20078;-80
2023/11/03 10:36:09;;;;;;;14.27;3.03;;;;;;;28.19;91.88;100740.03;21141737;28;20042;-80
2023/11/03 10:46:37;;;;;;;12.10;2.92;;;;;;;28.10;95.13;100733.25;21157146;27;20491;-81
2023/11/03 10:57:03;;;;;;;14.07;2.92;;;;;;;27.86;97.69;100723.81;21221846;27;20058;-81
2023/11/03 11:07:29;;;;;;;11.00;2.95;;;;;;;27.96;100.00;100719.59;21175742;27;20379;-79
2023/11/03 11:17:51;;;;;;;11.98;2.85;;;;;;;28.10;97.53;100716.09;21192607;27;20116;-79
2023/11/03 11:28:33;;;;;;;15.70;3.03;;;;;;;27.80;100.00;100717.84;21175179;27;20096;-78
2023/11/03 11:38:55;;;;;;;18.25;4.25;;;;;;;27.69;100.00;100713.91;21198139;27;20050;-77
2023/11/03 11:49:21;;;;;;;14.77;3.33;;;;;;;27.45;100.00;100700.78;21167710;27;20075;-79
2023/11/03 11:59:46;;;;;;;15.65;3.58;;;;;;;27.29;100.00;100698.94;21147489;27;20043;-80
2023/11/03 12:10:12;;;;;;;12.52;3.97;;;;;;;27.11;100.00;100697.19;21179022;27;20043;-78
2023/11/03 12:20:35;;;;;;;12.95;3.75;;;;;;;26.95;100.00;100680.91;21135830;27;20391;-78
2023/11/03 12:31:04;;;;;;;16.05;4.80;;;;;;;26.93;100.00;100698.19;21201504;27;20052;-78
2023/11/03 12:41:27;;;;;;;22.05;5.60;;;;;;;26.75;100.00;100691.00;21214626;27;20465;-78
2023/11/03 12:51:53;;;;;;;20.20;5.20;;;;;;;26.68;100.00;100705.81;21186261;27;20057;-77
2023/11/03 13:02:16;;;;;;;19.85;4.47;;;;;;;26.37;100.00;100711.94;21209768;27;20059;-74
2023/11/03 13:12:41;;;;;;;21.67;5.30;;;;;;;26.36;100.00;100712.91;21194453;27;20054;-74
2023/11/03 13:23:05;;;;;;;17.13;4.82;;;;;;;26.08;100.00;100718.75;21158219;27;20043;-74
2023/11/03 13:33:29;;;;;;;19.48;5.32;;;;;;;25.94;100.00;100697.78;21174677;27;20043;-74
2023/11/03 13:43:51;;;;;;;16.88;5.03;;;;;;;25.84;100.00;100723.53;21185787;27;20043;-77
2023/11/03 13:54:16;;;;;;;13.63;4.18;;;;;;;25.60;100.00;100730.13;21221592;27;20082;-76
2023/11/03 14:04:40;;;;;;;17.65;5.53;;;;;;;25.43;100.00;100738.97;21229619;27;20047;-73
2023/11/03 14:15:05;;;;;;;23.77;5.80;;;;;;;25.31;100.00;100735.03;21222955;27;20075;-75
2023/11/03 14:25:28;;;;;;;15.20;4.95;;;;;;;25.14;100.00;100752.94;21196088;27;20048;-76
2023/11/03 14:35:52;;;;;;;19.80;4.40;;;;;;;24.97;100.00;100754.56;21204610;27;20058;-76
2023/11/03 14:46:15;;;;;;;18.10;5.32;;;;;;;24.83;100.00;100766.88;21209179;27;20096;-75
2023/11/03 14:56:41;;;;;;;18.00;5.10;;;;;;;24.67;100.00;100769.38;21187592;27;20072;-75
2023/11/03 15:07:03;;;;;;;13.98;4.47;;;;;;;24.52;100.00;100775.41;21195729;27;20070;-74
2023/11/03 15:17:28;;;;;;;17.33;4.93;;;;;;;24.39;100.00;100784.94;21184123;27;20069;-75
2023/11/03 15:27:51;;;;;;;18.33;5.63;;;;;;;24.23;100.00;100784.69;21218429;27;20051;-76
2023/11/03 15:38:15;;;;;;;17.40;4.93;;;;;;;24.10;100.00;100780.69;21202147;27;20070;-75
2023/11/03 15:48:38;;;;;;;21.30;5.25;;;;;;;24.00;100.00;100790.97;21215491;27;20089;-76
2023/11/03 15:59:02;;;;;;;18.17;5.07;;;;;;;23.88;100.00;100804.06;21198501;27;20413;-76
2023/11/03 16:09:25;;;;;;;16.55;5.20;;;;;;;23.76;100.00;100805.41;21209508;27;20800;-76
2023/11/03 16:19:50;;;;;;;17.00;5.47;;;;;;;23.63;100.00;100804.97;21165782;27;20109;-73
2023/11/03 16:30:14;;;;;;;18.05;5.70;;;;;;;23.51;100.00;100827.00;21183064;27;20043;-76
2023/11/03 16:40:42;;;;;;;15.93;6.00;;;;;;;23.39;100.00;100830.09;21195830;27;20071;-76
2023/11/03 16:51:05;;;;;;;17.90;5.27;;;;;;;23.29;100.00;100826.00;21150161;27;20051;-77
2023/11/03 17:01:33;;;;;;;17.35;5.55;;;;;;;23.20;100.00;100832.56;21166619;27;20135;-74
2023/11/03 17:11:55;;;;;;;18.63;4.97;;;;;;;23.12;100.00;100836.47;21206975;28;20075;-76
2023/11/03 17:22:19;;;;;;;16.10;5.65;;;;;;;23.08;100.00;100837.50;21172827;27;20043;-76
2023/11/03 17:32:46;;;;;;;19.92;6.97;;;;;;;22.91;100.00;100830.88;21200802;27;20062;-73
2023/11/03 17:43:15;;;;;;;19.75;6.55;;;;;;;22.77;100.00;100849.34;21182070;27;20047;-74
2023/11/03 17:53:38;;;;;;;19.02;6.03;;;;;;;22.66;100.00;100856.84;21184189;27;20302;-76
2023/11/03 18:04:02;;;;;;;23.30;6.20;;;;;;;22.57;100.00;100878.69;21189311;27;20043;-74
2023/11/03 18:14:25;;;;;;;21.42;5.72;;;;;;;22.47;100.00;100888.84;21202583;27;20216;-75
2023/11/03 18:24:50;;;;;;;20.50;5.35;;;;;;;22.36;100.00;100879.34;21165544;27;20046;-76
2023/11/03 18:35:13;;;;;;;15.48;5.03;;;;;;;22.15;100.00;100883.56;21171348;27;20051;-76
2023/11/03 18:45:37;;;;;;;17.83;5.40;;;;;;;22.02;100.00;100893.81;21172247;27;20051;-76
2023/11/03 18:56:01;;;;;;;21.38;7.35;;;;;;;21.80;100.00;100900.69;21171328;27;20129;-76
2023/11/03 19:06:25;;;;;;;17.95;5.72;;;;;;;21.20;100.00;100884.44;21193603;27;20058;-76
2023/11/03 19:16:48;;;;;;;16.95;4.85;;;;;;;21.36;100.00;100889.38;21177409;27;20067;-77
2023/11/03 19:27:12;;;;;;;18.02;4.50;;;;;;;21.31;100.00;100896.66;21192366;27;20043;-77
2023/11/03 19:37:34;;;;;;;15.25;4.30;;;;;;;21.08;100.00;100899.00;21201999;27;20387;-76
2023/11/03 19:47:58;;;;;;;15.80;4.68;;;;;;;21.13;100.00;100889.06;21194841;27;20097;-76
2023/11/03 19:58:21;;;;;;;14.68;4.25;;;;;;;21.51;100.00;100897.94;21190891;27;20042;-76
2023/11/03 20:08:45;;;;;;;16.83;4.50;;;;;;;21.83;100.00;100900.63;21177992;27;20054;-75
2023/11/03 20:19:08;;;;;;;19.00;5.65;;;;;;;21.91;100.00;100917.41;21172353;27;20047;-77
2023/11/03 20:29:32;;;;;;;20.90;5.25;;;;;;;21.88;100.00;100921.06;21173866;27;20058;-77
2023/11/03 20:39:54;;;;;;;20.15;5.65;;;;;;;21.84;100.00;100919.38;21198725;27;20055;-77
2023/11/03 20:50:19;;;;;;;20.08;5.55;;;;;;;21.88;100.00;100883.41;21197822;27;20051;-78
2023/11/03 21:00:43;;;;;;;15.45;5.45;;;;;;;21.88;100.00;100844.91;21203716;27;20043;-77
2023/11/03 21:11:07;;;;;;;18.13;5.55;;;;;;;21.84;100.00;100821.75;21209383;28;20108;-77
2023/11/03 21:21:30;;;;;;;22.98;5.30;;;;;;;21.74;100.00;100841.72;21201461;28;20047;-76
2023/11/03 21:31:54;;;;;;;17.63;5.47;;;;;;;21.74;100.00;100836.34;21148516;28;20078;-74
2023/11/03 21:42:17;;;;;;;15.77;4.90;;;;;;;21.75;100.00;100849.75;21144460;27;20066;-74
2023/11/03 21:52:41;;;;;;;21.27;5.72;;;;;;;21.93;100.00;100867.16;21220712;27;20448;-77
2023/11/03 22:03:05;;;;;;;18.55;4.72;;;;;;;22.10;100.00;100847.88;21227666;27;20038;-78
2023/11/03 22:13:30;;;;;;;21.63;5.03;;;;;;;22.21;100.00;100853.78;21247548;27;20055;-79
2023/11/03 22:23:54;;;;;;;20.08;5.07;;;;;;;22.14;100.00;100850.41;21205651;27;20043;-78
2023/11/03 22:34:19;;;;;;;20.75;6.05;;;;;;;22.07;100.00;100856.00;21191074;27;20047;-78
2023/11/03 22:44:41;;;;;;;21.30;6.63;;;;;;;22.02;100.00;100844.53;21200491;27;20043;-79
2023/11/03 22:55:06;;;;;;;24.00;7.65;;;;;;;22.07;100.00;100830.00;21231568;27;20042;-79
2023/11/03 23:05:32;;;;;;;22.65;6.93;;;;;;;22.11;100.00;100826.31;21224382;27;20054;-78
2023/11/03 23:15:56;;;;;;;20.67;6.07;;;;;;;22.06;100.00;100817.50;21241468;27;20046;-79
2023/11/03 23:26:19;;;;;;;20.65;6.28;;;;;;;22.06;100.00;100821.97;21211277;27;20043;-78
2023/11/03 23:36:43;;;;;;;15.90;6.35;;;;;;;22.01;100.00;100818.56;21248230;27;20066;-79
2023/11/03 23:47:06;;;;;;;19.08;5.63;;;;;;;21.93;100.00;100818.75;21212456;27;20055;-78
2023/11/03 23:57:30;;;;;;;15.32;4.28;;;;;;;21.78;100.00;100787.88;21207418;27;20049;-79
